Time;durP1;ratioP1;P1;durP2;ratioP2;P2;SDS_P1;SDS_P2;PMS_P1;PMS_P2;Temp;Humidity;BMP_temperature;BMP_pressure;BME280_temperature;BME280_humidity;BME280_pressure;Samples;Min_cycle;Max_cycle;Signal;HPM_P1;HPM_P2
2023/08/08 00:00:04;;;;;;;5.63;3.53;;;14.10;1.00;;;;;;5018626;28;20180;-69
2023/08/08 00:02:30;;;;;;;12.60;3.40;;;14.10;1.00;;;;;;5015559;28;20223;-71
2023/08/08 00:04:56;;;;;;;7.83;3.43;;;14.10;1.00;;;;;;5035264;28;20919;-66
2023/08/08 00:07:22;;;;;;;5.43;3.30;;;14.10;1.00;;;;;;5031113;28;20191;-73
2023/08/08 00:09:48;;;;;;;10.83;3.67;;;14.20;1.00;;;;;;5034173;28;20183;-69
2023/08/08 00:12:13;;;;;;;6.53;2.67;;;14.20;1.00;;;;;;5035757;28;20193;-67
2023/08/08 00:14:39;;;;;;;11.60;3.60;;;14.20;1.00;;;;;;5024671;28;20192;-75
2023/08/08 00:17:05;;;;;;;7.07;2.73;;;14.20;1.00;;;;;;5018373;28;20199;-75
2023/08/08 00:19:30;;;;;;;14.97;3.93;;;14.20;1.00;;;;;;5034913;28;20186;-69
2023/08/08 00:21:56;;;;;;;6.93;3.33;;;14.10;1.00;;;;;;5033826;28;20200;-72
2023/08/08 00:24:22;;;;;;;10.70;3.43;;;14.10;1.00;;;;;;5035654;28;20171;-75
2023/08/08 00:26:48;;;;;;;16.10;4.77;;;14.00;1.00;;;;;;5032053;28;20180;-68
2023/08/08 00:29:13;;;;;;;9.57;3.40;;;14.10;1.00;;;;;;5033819;28;20171;-73
2023/08/08 00:31:39;;;;;;;7.67;3.17;;;14.00;1.00;;;;;;5018399;28;20199;-66
2023/08/08 00:34:05;;;;;;;10.67;3.47;;;14.00;1.00;;;;;;5019575;28;20204;-67
2023/08/08 00:36:30;;;;;;;6.43;3.80;;;14.00;1.00;;;;;;5014916;28;20177;-70
2023/08/08 00:38:56;;;;;;;8.37;4.03;;;14.00;1.00;;;;;;5032146;28;20178;-69
2023/08/08 00:41:21;;;;;;;6.10;2.80;;;14.00;1.00;;;;;;5035290;28;20197;-69
2023/08/08 00:43:47;;;;;;;12.60;3.73;;;14.00;1.00;;;;;;5033570;28;20294;-67
2023/08/08 00:46:13;;;;;;;10.33;3.70;;;13.90;1.00;;;;;;5028984;28;20172;-75
2023/08/08 00:48:39;;;;;;;10.80;3.40;;;13.80;1.00;;;;;;5032617;28;20191;-71
2023/08/08 00:51:05;;;;;;;15.13;3.63;;;13.90;1.00;;;;;;5024674;28;20443;-69
2023/08/08 00:53:31;;;;;;;6.47;3.23;;;13.90;1.00;;;;;;5014392;28;20188;-74
2023/08/08 00:55:59;;;;;;;8.40;3.97;;;13.90;1.00;;;;;;5016327;28;20447;-74
2023/08/08 00:58:25;;;;;;;15.57;3.50;;;13.90;1.00;;;;;;5032824;28;20476;-76
2023/08/08 01:00:54;;;;;;;18.03;3.23;;;13.80;1.00;;;;;;5033336;28;20406;-65
2023/08/08 01:03:20;;;;;;;15.20;2.90;;;13.80;1.00;;;;;;5032749;28;20460;-68
2023/08/08 01:05:58;;;;;;;8.77;4.07;;;13.80;1.00;;;;;;5034349;28;20410;-73
2023/08/08 01:08:32;;;;;;;11.90;2.80;;;13.80;1.00;;;;;;5028737;28;20458;-71
2023/08/08 01:10:59;;;;;;;3.90;2.43;;;13.70;99.90;;;;;;5015248;28;20760;-75
2023/08/08 01:13:27;;;;;;;13.43;2.87;;;13.70;99.90;;;;;;5020758;28;20441;-74
2023/08/08 01:15:55;;;;;;;10.53;3.87;;;13.80;99.90;;;;;;5028788;28;20521;-67
2023/08/08 01:18:22;;;;;;;10.80;3.37;;;13.80;99.90;;;;;;5014169;28;20492;-74
2023/08/08 01:20:50;;;;;;;9.20;3.50;;;13.70;99.90;;;;;;5014257;28;20497;-72
2023/08/08 01:23:27;;;;;;;13.07;3.67;;;13.70;99.90;;;;;;5016535;28;20469;-69
2023/08/08 01:25:54;;;;;;;13.10;3.43;;;13.80;99.90;;;;;;5014124;28;20923;-74
2023/08/08 01:28:23;;;;;;;4.70;2.47;;;13.70;99.90;;;;;;5014560;28;20904;-74
2023/08/08 01:30:49;;;;;;;7.63;4.03;;;13.80;99.90;;;;;;5015475;28;20399;-66
2023/08/08 01:33:15;;;;;;;9.33;3.23;;;13.70;99.90;;;;;;5033896;28;21021;-66
2023/08/08 01:35:46;;;;;;;8.73;3.40;;;13.70;99.90;;;;;;5033226;28;20437;-67
2023/08/08 01:38:19;;;;;;;10.10;3.03;;;13.70;99.90;;;;;;5033301;28;20556;-73
2023/08/08 01:40:45;;;;;;;14.07;3.40;;;13.70;99.90;;;;;;5026064;28;20454;-67
2023/08/08 01:43:14;;;;;;;3.60;2.50;;;13.80;99.90;;;;;;5034403;28;21108;-75
2023/08/08 01:45:41;;;;;;;19.73;3.70;;;13.70;99.90;;;;;;5032168;28;20414;-68
2023/08/08 01:48:08;;;;;;;6.67;3.17;;;13.80;99.90;;;;;;5032818;28;20548;-73
2023/08/08 01:50:34;;;;;;;7.83;3.20;;;13.80;99.90;;;;;;5034196;28;20403;-76
2023/08/08 01:53:00;;;;;;;8.60;3.37;;;13.80;99.90;;;;;;5032508;28;20833;-66
2023/08/08 01:55:26;;;;;;;9.43;4.47;;;13.80;99.90;;;;;;5031237;28;20912;-71
2023/08/08 01:57:58;;;;;;;7.47;3.90;;;13.80;99.90;;;;;;5019641;28;20325;-73
2023/08/08 02:00:25;;;;;;;8.07;2.47;;;13.80;99.90;;;;;;5012676;28;20432;-75
2023/08/08 02:02:51;;;;;;;13.53;3.50;;;13.80;99.90;;;;;;5031316;28;20465;-69
2023/08/08 02:05:16;;;;;;;9.13;3.43;;;13.80;99.90;;;;;;5033183;28;20172;-69
2023/08/08 02:07:42;;;;;;;5.57;2.90;;;13.80;99.90;;;;;;5033652;28;20194;-68
2023/08/08 02:10:08;;;;;;;5.47;3.07;;;13.80;99.90;;;;;;5033502;28;20220;-73
2023/08/08 02:12:34;;;;;;;10.97;3.90;;;13.80;99.90;;;;;;5031946;28;20219;-72
2023/08/08 02:15:00;;;;;;;25.30;4.27;;;13.80;99.90;;;;;;5033155;28;20186;-72
2023/08/08 02:17:26;;;;;;;6.30;3.03;;;13.80;99.90;;;;;;5029767;28;20488;-66
2023/08/08 02:19:52;;;;;;;11.03;2.87;;;13.70;99.90;;;;;;5033791;28;20172;-69
2023/08/08 02:22:18;;;;;;;13.13;3.27;;;13.70;99.90;;;;;;5032542;28;20454;-66
2023/08/08 02:24:43;;;;;;;8.03;3.53;;;13.70;99.90;;;;;;5033631;28;20403;-75
2023/08/08 02:27:09;;;;;;;13.67;3.77;;;13.70;99.90;;;;;;5032536;28;20536;-66
2023/08/08 02:29:35;;;;;;;9.40;3.40;;;13.70;99.90;;;;;;5033256;28;20385;-73
2023/08/08 02:32:01;;;;;;;5.93;2.87;;;13.70;99.90;;;;;;5031229;28;20179;-69
2023/08/08 02:34:26;;;;;;;10.60;2.70;;;13.70;99.90;;;;;;5023546;28;20541;-73
2023/08/08 02:36:52;;;;;;;11.47;2.83;;;13.60;99.90;;;;;;5027681;28;20235;-75
2023/08/08 02:39:18;;;;;;;11.93;2.97;;;13.80;99.90;;;;;;5013396;28;20191;-74
2023/08/08 02:41:43;;;;;;;9.80;2.93;;;13.70;99.90;;;;;;5030951;28;20183;-72
2023/08/08 02:44:09;;;;;;;6.20;2.90;;;13.70;99.90;;;;;;5032526;28;20183;-76
2023/08/08 02:46:37;;;;;;;7.00;2.60;;;13.70;99.90;;;;;;5029155;28;20171;-74
2023/08/08 02:49:05;;;;;;;8.20;2.57;;;13.70;99.90;;;;;;5018404;28;20422;-66
2023/08/08 02:51:31;;;;;;;13.00;2.90;;;13.70;99.90;;;;;;5030735;28;20397;-71
2023/08/08 02:53:57;;;;;;;12.13;3.90;;;13.70;99.90;;;;;;5016052;28;20422;-74
2023/08/08 02:56:22;;;;;;;15.90;4.47;;;13.80;99.90;;;;;;5012061;28;20625;-67
2023/08/08 02:58:48;;;;;;;11.90;3.17;;;13.80;99.90;;;;;;5032282;28;20215;-69
2023/08/08 03:01:15;;;;;;;7.30;3.27;;;13.70;1.00;;;;;;5033082;28;20176;-71
2023/08/08 03:03:41;;;;;;;8.03;3.90;;;13.80;1.00;;;;;;5031757;28;20667;-66
2023/08/08 03:06:08;;;;;;;8.13;2.87;;;13.70;1.00;;;;;;5030410;28;20448;-68
2023/08/08 03:08:33;;;;;;;9.23;3.27;;;13.70;1.00;;;;;;5025451;28;20432;-66
2023/08/08 03:10:59;;;;;;;4.40;2.93;;;13.70;1.00;;;;;;5013218;28;20772;-73
2023/08/08 03:13:25;;;;;;;6.40;3.00;;;13.70;1.00;;;;;;5013103;28;20911;-75
2023/08/08 03:15:51;;;;;;;8.00;3.60;;;13.70;1.00;;;;;;5012505;28;20176;-67
2023/08/08 03:18:16;;;;;;;6.23;2.50;;;13.80;1.00;;;;;;5025338;28;20223;-74
2023/08/08 03:20:42;;;;;;;9.43;3.10;;;13.80;1.00;;;;;;5032938;28;20668;-67
2023/08/08 03:23:08;;;;;;;6.87;2.73;;;13.80;1.00;;;;;;5032732;28;20252;-74
2023/08/08 03:25:33;;;;;;;10.80;2.53;;;13.80;1.00;;;;;;5028946;28;20236;-71
2023/08/08 03:27:59;;;;;;;7.20;3.03;;;13.80;1.00;;;;;;5029834;28;20672;-75
2023/08/08 03:30:25;;;;;;;6.70;2.93;;;13.80;1.00;;;;;;5032884;28;20571;-73
2023/08/08 03:32:50;;;;;;;5.57;2.30;;;13.80;1.00;;;;;;5031426;28;20187;-69
2023/08/08 03:35:16;;;;;;;9.27;2.90;;;13.80;1.00;;;;;;5030795;28;20541;-69
2023/08/08 03:37:42;;;;;;;9.30;2.77;;;13.70;1.00;;;;;;5031620;28;20286;-69
2023/08/08 03:40:08;;;;;;;6.70;2.50;;;13.70;1.00;;;;;;5032728;28;20194;-67
2023/08/08 03:42:34;;;;;;;7.70;2.50;;;13.70;1.00;;;;;;5030201;28;20286;-71
2023/08/08 03:45:00;;;;;;;6.13;2.67;;;13.70;1.00;;;;;;5011209;28;20482;-73
2023/08/08 03:47:26;;;;;;;8.63;3.10;;;13.70;1.00;;;;;;5014152;28;20207;-68
2023/08/08 03:49:55;;;;;;;4.33;2.90;;;13.70;1.00;;;;;;5012938;28;20652;-75
2023/08/08 03:52:21;;;;;;;3.20;2.17;;;13.70;1.00;;;;;;5016867;28;20263;-66
2023/08/08 03:54:46;;;;;;;4.73;3.00;;;13.60;1.00;;;;;;5032132;28;20402;-70
2023/08/08 03:57:12;;;;;;;5.83;2.57;;;13.60;1.00;;;;;;5030567;28;20882;-75
2023/08/08 03:59:38;;;;;;;10.37;2.90;;;13.60;1.00;;;;;;5029153;28;20564;-66
2023/08/08 04:02:04;;;;;;;8.13;2.57;;;13.50;1.00;;;;;;5025053;28;20498;-73
2023/08/08 04:04:30;;;;;;;2.83;2.50;;;13.60;1.00;;;;;;5031534;28;20180;-74
2023/08/08 04:06:56;;;;;;;7.70;3.63;;;13.60;1.00;;;;;;5023972;28;20673;-67
2023/08/08 04:09:21;;;;;;;6.23;4.37;;;13.70;1.00;;;;;;5028614;28;20434;-70
2023/08/08 04:11:47;;;;;;;5.73;2.80;;;13.60;1.00;;;;;;5032296;28;20845;-73
2023/08/08 04:14:13;;;;;;;5.47;2.43;;;13.60;1.00;;;;;;5032360;28;20172;-69
2023/08/08 04:16:39;;;;;;;4.67;2.50;;;13.40;1.00;;;;;;5028907;28;20175;-68
2023/08/08 04:19:05;;;;;;;7.00;2.60;;;13.40;1.00;;;;;;5031304;28;20180;-67
2023/08/08 04:21:32;;;;;;;6.63;2.80;;;13.30;1.00;;;;;;5034564;28;20384;-71
2023/08/08 04:23:58;;;;;;;12.57;3.53;;;13.30;1.00;;;;;;5035684;28;20199;-66
2023/08/08 04:26:24;;;;;;;3.77;2.40;;;13.30;1.00;;;;;;5034924;28;20409;-74
2023/08/08 04:28:49;;;;;;;5.43;2.63;;;13.30;1.00;;;;;;5033346;28;20450;-66
2023/08/08 04:31:15;;;;;;;4.33;2.97;;;13.30;1.00;;;;;;5035662;28;20167;-66
2023/08/08 04:33:41;;;;;;;4.00;2.23;;;13.20;1.00;;;;;;5026673;28;20180;-74
2023/08/08 04:36:06;;;;;;;7.33;2.20;;;13.30;1.00;;;;;;5030870;28;20202;-73
2023/08/08 04:38:32;;;;;;;5.30;2.73;;;13.30;1.00;;;;;;5034666;28;20203;-71
2023/08/08 04:40:58;;;;;;;6.70;2.93;;;13.30;1.00;;;;;;5035349;28;20251;-74
2023/08/08 04:43:24;;;;;;;4.03;2.20;;;13.30;1.00;;;;;;5035454;28;20199;-68
2023/08/08 04:45:50;;;;;;;7.20;3.20;;;13.30;1.00;;;;;;5033565;28;20175;-71
2023/08/08 04:48:16;;;;;;;5.93;2.43;;;13.40;1.00;;;;;;5033918;28;20191;-68
2023/08/08 04:50:41;;;;;;;7.23;2.80;;;13.40;1.00;;;;;;5029483;28;20480;-68
2023/08/08 04:53:07;;;;;;;8.40;2.07;;;13.40;1.00;;;;;;5035199;28;20183;-66
2023/08/08 04:55:33;;;;;;;7.53;3.10;;;13.50;1.00;;;;;;5033023;28;20213;-67
2023/08/08 04:57:58;;;;;;;8.73;2.53;;;13.60;1.00;;;;;;5034482;28;20721;-67
2023/08/08 05:00:26;;;;;;;5.30;2.60;;;13.60;1.00;;;;;;5030745;28;20184;-67
2023/08/08 05:02:52;;;;;;;9.70;3.43;;;13.60;1.00;;;;;;5031523;28;20226;-74
2023/08/08 05:05:17;;;;;;;2.83;2.10;;;13.70;1.00;;;;;;5034384;28;20648;-66
2023/08/08 05:07:43;;;;;;;6.40;2.40;;;13.70;1.00;;;;;;5035011;28;20198;-73
2023/08/08 05:10:09;;;;;;;10.60;3.03;;;13.70;1.00;;;;;;5034683;28;20251;-70
2023/08/08 05:12:35;;;;;;;3.40;2.93;;;13.70;1.00;;;;;;5033490;28;20183;-73
2023/08/08 05:15:01;;;;;;;3.97;2.40;;;13.60;1.00;;;;;;5034458;28;20576;-74
2023/08/08 05:17:31;;;;;;;6.57;2.70;;;13.60;1.00;;;;;;5031222;28;20191;-73
2023/08/08 05:19:56;;;;;;;6.90;2.43;;;13.70;8.20;;;;;;5019775;28;20485;-69
2023/08/08 05:22:22;;;;;;;4.20;2.20;;;13.60;16.50;;;;;;5014769;28;20455;-67
2023/08/08 05:24:48;;;;;;;7.83;2.80;;;13.60;29.40;;;;;;5015005;28;20223;-68
2023/08/08 05:27:13;;;;;;;4.43;2.43;;;13.60;51.40;;;;;;5013958;28;20196;-66
2023/08/08 05:29:40;;;;;;;9.57;3.40;;;13.50;67.90;;;;;;5029349;28;20175;-67
2023/08/08 05:32:07;;;;;;;5.77;2.67;;;13.40;82.60;;;;;;5034588;28;20171;-72
2023/08/08 05:34:33;;;;;;;8.23;2.60;;;13.40;93.30;;;;;;5029637;28;20525;-72
2023/08/08 05:36:59;;;;;;;4.80;2.17;;;13.50;99.90;;;;;;5013143;28;20435;-67
2023/08/08 05:39:25;;;;;;;6.43;2.57;;;13.50;99.90;;;;;;5028327;28;20945;-65
2023/08/08 05:41:51;;;;;;;10.10;2.70;;;13.60;99.90;;;;;;5034651;28;20247;-66
2023/08/08 05:44:16;;;;;;;8.33;2.50;;;13.50;99.90;;;;;;5033079;28;20175;-67
2023/08/08 05:46:42;;;;;;;2.10;1.73;;;13.50;99.90;;;;;;5029987;28;20893;-71
2023/08/08 05:49:08;;;;;;;5.17;2.10;;;13.40;99.90;;;;;;5033222;28;20211;-72
2023/08/08 05:51:34;;;;;;;8.00;2.40;;;13.30;99.90;;;;;;5033897;28;20620;-69
2023/08/08 05:54:00;;;;;;;3.20;1.70;;;13.30;99.90;;;;;;5029922;28;20441;-72
2023/08/08 05:56:36;;;;;;;6.40;2.83;;;13.40;99.90;;;;;;5033221;28;20246;-66
2023/08/08 05:59:02;;;;;;;5.10;2.80;;;13.30;99.90;;;;;;5030711;28;20628;-69
2023/08/08 06:01:27;;;;;;;8.07;2.03;;;13.30;99.90;;;;;;5031187;28;20436;-67
2023/08/08 06:03:53;;;;;;;6.57;2.53;;;13.40;99.90;;;;;;5030959;28;20207;-68
2023/08/08 06:06:19;;;;;;;5.67;2.97;;;13.40;99.90;;;;;;5031585;28;20191;-70
2023/08/08 06:08:44;;;;;;;3.70;2.57;;;13.30;99.90;;;;;;5015869;28;20660;-70
2023/08/08 06:11:10;;;;;;;8.50;2.60;;;13.20;99.90;;;;;;5012236;28;20172;-66
2023/08/08 06:13:36;;;;;;;4.17;2.17;;;13.20;99.90;;;;;;5013979;28;20306;-72
2023/08/08 06:16:06;;;;;;;11.77;2.80;;;13.20;99.90;;;;;;5018302;28;20214;-71
2023/08/08 06:18:33;;;;;;;7.70;2.70;;;13.30;99.90;;;;;;5023072;28;20951;-73
2023/08/08 06:20:58;;;;;;;2.70;2.37;;;13.40;99.90;;;;;;5033598;28;20413;-67
2023/08/08 06:23:24;;;;;;;5.73;2.27;;;13.50;99.90;;;;;;5033290;28;20453;-68
2023/08/08 06:25:50;;;;;;;8.07;2.70;;;13.60;99.90;;;;;;5031016;28;20182;-67
2023/08/08 06:28:15;;;;;;;4.07;2.40;;;13.60;99.90;;;;;;5033326;28;20568;-70
2023/08/08 06:30:41;;;;;;;6.07;3.43;;;13.60;99.90;;;;;;5028370;28;20190;-68
2023/08/08 06:33:07;;;;;;;5.80;2.40;;;13.60;99.90;;;;;;5024393;28;20571;-72
2023/08/08 06:35:33;;;;;;;3.50;2.47;;;13.70;99.90;;;;;;5027728;28;20272;-68
2023/08/08 06:37:58;;;;;;;7.93;2.60;;;13.70;99.90;;;;;;5012564;28;20916;-71
2023/08/08 06:40:25;;;;;;;4.87;2.43;;;13.90;99.90;;;;;;5011502;28;20246;-72
2023/08/08 06:42:50;;;;;;;5.63;2.50;;;14.00;99.90;;;;;;5013205;28;20649;-69
2023/08/08 06:45:16;;;;;;;6.57;2.30;;;14.10;99.90;;;;;;5011290;28;20418;-67
2023/08/08 06:47:42;;;;;;;3.77;3.23;;;14.20;99.90;;;;;;5022223;28;20207;-67
2023/08/08 06:50:08;;;;;;;4.07;2.40;;;14.20;99.90;;;;;;5030096;28;20176;-67
2023/08/08 06:52:34;;;;;;;6.13;2.60;;;14.30;99.90;;;;;;5031184;28;20211;-67
2023/08/08 06:54:59;;;;;;;7.10;3.47;;;14.30;99.90;;;;;;5024502;28;20479;-70
2023/08/08 06:57:25;;;;;;;6.90;2.20;;;14.30;99.90;;;;;;5018128;28;20199;-71
2023/08/08 06:59:52;;;;;;;5.57;2.43;;;14.10;99.90;;;;;;5030145;28;20237;-66
2023/08/08 07:02:21;;;;;;;9.97;2.73;;;14.10;99.90;;;;;;5028294;28;20192;-70
2023/08/08 07:04:47;;;;;;;4.83;2.27;;;14.10;99.90;;;;;;5024465;28;20487;-67
2023/08/08 07:07:12;;;;;;;8.10;2.67;;;14.10;99.90;;;;;;5032000;28;20509;-66
2023/08/08 07:09:38;;;;;;;8.77;2.70;;;14.20;99.90;;;;;;5032860;28;20640;-71
2023/08/08 07:12:05;;;;;;;5.57;2.90;;;14.30;99.90;;;;;;5032940;28;20159;-70
2023/08/08 07:14:30;;;;;;;9.03;3.10;;;14.40;99.90;;;;;;5031269;28;20402;-68
2023/08/08 07:16:56;;;;;;;3.93;2.50;;;14.50;99.90;;;;;;5029893;28;20461;-71
2023/08/08 07:19:22;;;;;;;7.33;3.13;;;14.60;99.90;;;;;;5032624;28;20183;-68
2023/08/08 07:21:48;;;;;;;5.07;2.27;;;14.80;99.90;;;;;;5018292;28;20179;-70
2023/08/08 07:24:14;;;;;;;5.00;2.70;;;14.90;99.90;;;;;;5031207;28;20179;-70
2023/08/08 07:26:39;;;;;;;5.47;2.77;;;14.80;99.90;;;;;;5031938;28;20251;-71
2023/08/08 07:29:05;;;;;;;8.23;3.30;;;14.80;99.90;;;;;;5032807;28;20168;-68
2023/08/08 07:31:32;;;;;;;5.13;2.33;;;14.80;99.90;;;;;;5029617;28;20186;-67
2023/08/08 07:33:57;;;;;;;10.93;3.33;;;14.60;99.90;;;;;;5031104;28;20414;-68
2023/08/08 07:36:23;;;;;;;8.53;3.23;;;14.50;99.90;;;;;;5031980;28;20472;-69
2023/08/08 07:38:49;;;;;;;7.40;4.07;;;14.50;99.90;;;;;;5020991;28;20265;-69
2023/08/08 07:41:15;;;;;;;8.13;3.60;;;14.50;99.90;;;;;;5012804;28;20191;-67
2023/08/08 07:43:40;;;;;;;12.13;3.30;;;14.40;99.90;;;;;;5012824;28;20202;-70
2023/08/08 07:46:06;;;;;;;9.70;3.20;;;14.30;99.90;;;;;;5018516;28;20187;-66
2023/08/08 07:48:32;;;;;;;10.60;2.67;;;14.30;99.90;;;;;;5032772;28;20192;-69
2023/08/08 07:50:58;;;;;;;7.63;2.90;;;14.40;99.90;;;;;;5030039;28;20453;-69
2023/08/08 07:53:24;;;;;;;4.30;2.73;;;14.30;99.90;;;;;;5035375;28;20651;-72
2023/08/08 07:55:49;;;;;;;10.63;3.40;;;14.30;99.90;;;;;;5034609;28;20179;-66
2023/08/08 07:58:15;;;;;;;10.70;2.70;;;14.20;99.90;;;;;;5035594;28;20195;-67
2023/08/08 08:00:40;;;;;;;6.30;2.97;;;14.20;99.90;;;;;;5033833;28;20184;-66
2023/08/08 08:03:06;;;;;;;8.57;3.27;;;14.20;99.90;;;;;;5034804;28;20226;-66
2023/08/08 08:05:34;;;;;;;14.03;3.20;;;14.20;99.90;;;;;;5033539;28;20250;-67
2023/08/08 08:08:00;;;;;;;8.43;3.47;;;14.20;99.90;;;;;;5035266;28;20195;-67
2023/08/08 08:10:26;;;;;;;7.60;3.00;;;14.20;99.90;;;;;;5034784;28;20426;-67
2023/08/08 08:12:57;;;;;;;8.47;2.80;;;14.20;99.90;;;;;;5020654;28;20418;-69
2023/08/08 08:15:26;;;;;;;5.03;3.20;;;14.20;99.90;;;;;;5021833;28;20814;-70
2023/08/08 08:17:51;;;;;;;7.53;2.73;;;14.40;99.90;;;;;;5030798;28;20439;-70
2023/08/08 08:20:17;;;;;;;5.47;2.30;;;14.60;99.90;;;;;;5016318;28;20400;-67
2023/08/08 08:22:43;;;;;;;6.47;3.30;;;14.80;99.90;;;;;;5016339;28;20204;-65
2023/08/08 08:25:09;;;;;;;9.20;3.33;;;14.80;99.90;;;;;;5015457;28;20172;-70
2023/08/08 08:27:37;;;;;;;6.03;2.93;;;14.70;99.90;;;;;;5016216;28;20334;-69
2023/08/08 08:30:11;;;;;;;4.80;2.30;;;14.60;99.90;;;;;;5028307;28;20606;-69
2023/08/08 08:32:39;;;;;;;6.23;3.00;;;14.50;99.90;;;;;;5035369;28;20461;-69
2023/08/08 08:35:06;;;;;;;3.90;2.10;;;14.40;99.90;;;;;;5029700;28;20795;-66
2023/08/08 08:37:32;;;;;;;4.80;2.53;;;14.40;99.90;;;;;;5016114;28;20958;-67
2023/08/08 08:39:58;;;;;;;5.80;3.10;;;14.50;99.90;;;;;;5015747;28;20912;-67
2023/08/08 08:42:24;;;;;;;4.87;2.57;;;14.60;99.90;;;;;;5016169;28;20439;-66
2023/08/08 08:44:51;;;;;;;8.50;3.23;;;14.90;99.90;;;;;;5027723;28;20176;-67
2023/08/08 08:47:20;;;;;;;9.03;2.13;;;15.10;99.90;;;;;;5021203;28;20451;-67
2023/08/08 08:49:46;;;;;;;5.07;4.53;;;15.20;99.90;;;;;;5021911;28;20417;-69
2023/08/08 08:52:12;;;;;;;5.83;2.20;;;15.30;99.90;;;;;;5032480;28;20433;-67
2023/08/08 08:54:38;;;;;;;8.03;2.50;;;15.10;99.90;;;;;;5015857;28;20403;-66
2023/08/08 08:57:04;;;;;;;4.40;2.07;;;15.40;99.90;;;;;;5014285;28;20426;-69
2023/08/08 08:59:30;;;;;;;5.67;2.40;;;15.70;99.90;;;;;;5022766;28;20446;-67
2023/08/08 09:01:57;;;;;;;3.97;1.80;;;15.80;99.90;;;;;;5015640;28;20407;-66
2023/08/08 09:04:23;;;;;;;2.90;2.40;;;15.80;99.90;;;;;;5014817;28;20456;-69
2023/08/08 09:06:50;;;;;;;9.63;2.70;;;15.70;99.90;;;;;;5014451;28;20399;-66
2023/08/08 09:09:17;;;;;;;8.43;4.27;;;15.70;99.90;;;;;;5015082;28;20399;-66
2023/08/08 09:11:48;;;;;;;6.93;4.20;;;15.90;99.90;;;;;;5015349;28;20392;-66
2023/08/08 09:14:22;;;;;;;3.30;2.17;;;15.90;99.90;;;;;;5029390;28;20803;-66
2023/08/08 09:16:49;;;;;;;4.80;2.33;;;15.80;99.90;;;;;;5032152;28;20434;-68
2023/08/08 09:19:17;;;;;;;4.03;2.00;;;15.60;99.90;;;;;;5032600;28;20445;-69
2023/08/08 09:21:43;;;;;;;7.03;2.87;;;15.90;99.90;;;;;;5035183;28;20402;-69
2023/08/08 09:24:09;;;;;;;3.57;2.00;;;16.20;99.90;;;;;;5033711;28;20461;-69
2023/08/08 09:26:35;;;;;;;6.73;2.03;;;16.30;99.90;;;;;;5033539;28;20172;-66
2023/08/08 09:29:02;;;;;;;6.23;1.90;;;16.20;94.30;;;;;;5032543;28;20419;-66
2023/08/08 09:31:30;;;;;;;4.57;1.70;;;16.00;89.90;;;;;;5020601;28;20433;-66
2023/08/08 09:33:59;;;;;;;6.30;2.13;;;15.90;69.30;;;;;;5029573;28;20484;-69
2023/08/08 09:36:25;;;;;;;9.13;1.90;;;15.80;76.50;;;;;;5032815;28;20475;-68
2023/08/08 09:38:52;;;;;;;5.60;2.07;;;15.60;61.70;;;;;;5034664;28;20513;-68
2023/08/08 09:41:20;;;;;;;3.97;1.60;;;15.50;69.20;;;;;;5033522;28;20496;-66
2023/08/08 09:43:48;;;;;;;5.70;2.03;;;15.50;63.40;;;;;;5030877;28;20866;-66
2023/08/08 09:46:15;;;;;;;5.47;1.73;;;15.30;32.70;;;;;;5032105;28;20505;-66
2023/08/08 09:48:42;;;;;;;6.13;2.00;;;15.20;20.70;;;;;;5030621;28;20541;-67
2023/08/08 09:51:08;;;;;;;4.33;1.97;;;15.40;25.10;;;;;;5015018;28;20486;-69
2023/08/08 09:53:34;;;;;;;9.10;2.03;;;15.80;40.10;;;;;;5027888;28;20438;-67
2023/08/08 09:56:03;;;;;;;4.53;2.20;;;16.20;24.90;;;;;;5033434;28;20394;-70
2023/08/08 09:58:29;;;;;;;3.70;1.77;;;16.70;1.00;;;;;;5032885;28;20450;-67
2023/08/08 10:00:55;;;;;;;4.57;2.23;;;16.80;1.00;;;;;;5032719;28;20413;-67
2023/08/08 10:03:22;;;;;;;5.80;2.53;;;16.70;1.00;;;;;;5034062;28;20450;-69
2023/08/08 10:05:48;;;;;;;2.93;2.00;;;16.60;1.00;;;;;;5029566;28;20808;-66
2023/08/08 10:08:17;;;;;;;4.47;1.50;;;16.40;1.00;;;;;;5028868;28;20533;-67
2023/08/08 10:10:45;;;;;;;3.67;2.00;;;16.20;1.00;;;;;;5018272;28;20427;-71
2023/08/08 10:13:25;;;;;;;9.77;2.67;;;16.00;1.00;;;;;;5024348;28;20430;-66
2023/08/08 10:15:52;;;;;;;10.93;2.13;;;16.00;1.00;;;;;;5030910;28;20445;-66
2023/08/08 10:18:19;;;;;;;5.70;2.17;;;16.20;1.00;;;;;;5033674;28;20970;-67
2023/08/08 10:20:47;;;;;;;8.37;2.17;;;16.30;1.00;;;;;;5034007;28;20399;-70
2023/08/08 10:23:16;;;;;;;7.33;2.00;;;16.60;1.00;;;;;;5026573;28;20540;-67
2023/08/08 10:25:50;;;;;;;8.80;2.07;;;17.00;1.00;;;;;;5032433;28;20403;-71
2023/08/08 10:28:18;;;;;;;10.93;2.33;;;17.60;1.00;;;;;;5029757;28;20958;-68
2023/08/08 10:30:55;;;;;;;4.00;2.17;;;17.80;1.00;;;;;;5031460;28;20433;-72
2023/08/08 10:33:26;;;;;;;3.80;2.10;;;18.30;1.00;;;;;;5014025;28;20500;-69
2023/08/08 10:36:03;;;;;;;6.00;1.53;;;18.80;1.00;;;;;;5012834;28;20395;-67
2023/08/08 10:38:40;;;;;;;5.53;1.90;;;19.20;1.00;;;;;;5013900;28;20419;-71
2023/08/08 10:41:10;;;;;;;3.57;1.83;;;19.70;1.00;;;;;;5013500;28;20860;-72
2023/08/08 10:43:38;;;;;;;8.97;1.43;;;20.10;1.00;;;;;;5027380;28;20871;-67
2023/08/08 10:46:04;;;;;;;4.57;1.60;;;20.40;1.00;;;;;;5032681;28;20437;-72
2023/08/08 10:48:30;;;;;;;5.93;1.63;;;20.30;1.00;;;;;;5023337;28;20455;-72
2023/08/08 10:51:00;;;;;;;8.30;1.30;;;20.50;1.00;;;;;;5013787;28;20414;-67
2023/08/08 10:53:28;;;;;;;3.87;1.33;;;20.50;1.00;;;;;;5013656;28;20494;-66
2023/08/08 10:56:01;;;;;;;3.13;1.70;;;20.50;1.00;;;;;;5020165;28;20524;-72
2023/08/08 10:58:38;;;;;;;3.20;1.50;;;20.70;1.00;;;;;;5031417;28;20450;-70
2023/08/08 11:01:08;;;;;;;5.23;1.37;;;20.80;1.00;;;;;;5033297;28;20406;-68
2023/08/08 11:03:39;;;;;;;3.43;1.93;;;20.50;1.00;;;;;;5033778;28;20454;-72
2023/08/08 11:06:09;;;;;;;3.93;1.30;;;19.40;1.00;;;;;;5023343;28;20951;-66
2023/08/08 11:08:38;;;;;;;3.83;1.60;;;19.00;1.00;;;;;;5012610;28;20462;-67
2023/08/08 11:11:06;;;;;;;2.57;2.00;;;19.30;1.00;;;;;;5030528;28;20496;-68
2023/08/08 11:13:32;;;;;;;3.37;1.57;;;20.20;1.00;;;;;;5032136;28;20926;-67
2023/08/08 11:15:58;;;;;;;1.93;1.47;;;20.40;1.00;;;;;;5031990;28;20406;-66
2023/08/08 11:18:25;;;;;;;2.90;1.03;;;19.80;1.00;;;;;;5032818;28;20937;-67
2023/08/08 11:20:51;;;;;;;4.47;1.60;;;19.10;1.00;;;;;;5030567;28;20420;-72
2023/08/08 11:23:18;;;;;;;2.17;1.13;;;18.60;1.00;;;;;;5018139;28;20852;-71
2023/08/08 11:25:45;;;;;;;4.50;1.43;;;17.90;1.00;;;;;;5012741;28;20164;-65
2023/08/08 11:28:12;;;;;;;4.07;1.83;;;17.50;1.00;;;;;;5021188;28;20445;-67
2023/08/08 11:30:45;;;;;;;4.70;1.57;;;16.90;1.00;;;;;;5037162;28;20425;-71
2023/08/08 11:33:15;;;;;;;5.17;1.87;;;16.70;1.00;;;;;;5036612;28;20413;-72
2023/08/08 11:35:46;;;;;;;1.63;1.23;;;16.90;1.00;;;;;;5033844;28;20458;-72
2023/08/08 11:38:13;;;;;;;1.70;1.47;;;16.90;1.00;;;;;;5037058;28;21016;-72
2023/08/08 11:40:39;;;;;;;5.07;1.57;;;16.90;1.00;;;;;;5025663;28;20457;-71
2023/08/08 11:43:06;;;;;;;3.77;1.40;;;17.20;1.00;;;;;;5018384;28;20442;-66
2023/08/08 11:45:32;;;;;;;1.37;1.10;;;18.00;1.00;;;;;;5036026;28;20406;-68
2023/08/08 11:47:59;;;;;;;5.33;1.73;;;18.80;1.00;;;;;;5036632;28;20429;-67
2023/08/08 11:50:27;;;;;;;3.60;1.50;;;19.80;1.00;;;;;;5035501;28;20494;-66
2023/08/08 11:52:54;;;;;;;4.33;1.60;;;19.90;1.00;;;;;;5035010;28;20433;-67
2023/08/08 11:55:23;;;;;;;5.23;1.53;;;20.10;1.00;;;;;;5035492;28;21039;-66
2023/08/08 11:57:49;;;;;;;1.50;1.40;;;20.70;1.00;;;;;;5028121;28;20517;-70
2023/08/08 12:00:16;;;;;;;3.27;1.33;;;20.80;1.00;;;;;;5034365;28;20441;-71
2023/08/08 12:02:44;;;;;;;4.20;1.10;;;20.70;99.90;;;;;;5035387;28;20482;-72
2023/08/08 12:05:13;;;;;;;1.50;1.03;;;20.20;99.90;;;;;;5035835;28;20822;-67
2023/08/08 12:07:41;;;;;;;1.40;1.00;;;19.30;99.90;;;;;;5036281;28;20430;-66
2023/08/08 12:10:18;;;;;;;2.33;1.00;;;19.00;99.90;;;;;;5034905;28;20438;-67
2023/08/08 12:12:45;;;;;;;1.77;0.90;;;18.80;99.90;;;;;;5032657;28;20437;-73
2023/08/08 12:15:11;;;;;;;3.17;0.97;;;18.30;99.90;;;;;;5031981;28;20434;-71
2023/08/08 12:17:38;;;;;;;2.10;1.40;;;18.00;99.90;;;;;;5034895;28;20444;-70
2023/08/08 12:20:05;;;;;;;3.50;1.00;;;17.70;99.90;;;;;;5036277;28;20449;-66
2023/08/08 12:22:31;;;;;;;3.87;1.17;;;17.30;99.90;;;;;;5035120;28;20454;-67
2023/08/08 12:24:57;;;;;;;4.73;1.63;;;17.00;99.90;;;;;;5033952;28;20461;-67
2023/08/08 12:27:23;;;;;;;2.03;1.50;;;17.00;99.90;;;;;;5034943;28;20803;-67
2023/08/08 12:29:49;;;;;;;2.03;1.23;;;17.70;99.90;;;;;;5031410;28;20179;-66
2023/08/08 12:32:15;;;;;;;2.20;1.10;;;18.90;99.90;;;;;;5016207;28;20668;-65
2023/08/08 12:34:40;;;;;;;1.70;0.80;;;19.70;99.90;;;;;;5016320;28;20207;-71
2023/08/08 12:37:06;;;;;;;2.50;0.90;;;20.70;99.90;;;;;;5015216;28;20191;-69
2023/08/08 12:39:32;;;;;;;3.67;1.50;;;21.60;99.90;;;;;;5013621;28;20632;-69
2023/08/08 12:41:57;;;;;;;2.73;1.00;;;21.70;99.90;;;;;;5016050;28;20180;-66
2023/08/08 12:44:23;;;;;;;1.50;0.97;;;22.10;99.90;;;;;;5029400;28;20200;-66
2023/08/08 12:46:49;;;;;;;3.97;1.10;;;22.50;99.90;;;;;;5021400;28;20188;-69